Time;durP1;ratioP1;P1;durP2;ratioP2;P2;SDS_P1;SDS_P2;PMS_P1;PMS_P2;Temp;Humidity;BMP_temperature;BMP_pressure;BME280_temperature;BME280_humidity;BME280_pressure;Samples;Min_cycle;Max_cycle;Signal;HPM_P1;HPM_P2
2022/05/13 00:01:54;;;;;;;0.90;0.60;;;;;;;-146.19;100.00;65364.44;10535487;28;20470;-49
2022/05/13 00:07:14;;;;;;;1.83;0.80;;;;;;;-146.19;100.00;65364.44;10516214;28;20708;-49
2022/05/13 00:12:36;;;;;;;0.70;0.70;;;;;;;-146.19;100.00;65364.44;10533471;28;20052;-49
2022/05/13 00:17:56;;;;;;;0.82;0.77;;;;;;;-146.19;100.00;65364.44;10535391;28;20044;-49
2022/05/13 00:23:16;;;;;;;0.65;0.65;;;;;;;-146.19;100.00;65364.44;10535432;28;20062;-49
2022/05/13 00:28:35;;;;;;;0.60;0.60;;;;;;;-146.19;100.00;65364.44;10493408;28;20052;-49
2022/05/13 00:33:55;;;;;;;0.75;0.70;;;;;;;-146.19;100.00;65364.44;10493500;28;20107;-48
2022/05/13 00:39:14;;;;;;;0.60;0.60;;;;;;;-146.19;100.00;65364.44;10517022;28;20063;-49
2022/05/13 00:44:34;;;;;;;0.60;0.60;;;;;;;-146.19;100.00;65364.44;10534339;28;20052;-49
2022/05/13 00:49:55;;;;;;;0.73;0.70;;;;;;;-146.19;100.00;65364.44;10534525;28;20044;-49
2022/05/13 00:55:22;;;;;;;0.80;0.73;;;;;;;-146.19;100.00;65364.44;10504775;28;20040;-49
2022/05/13 01:00:43;;;;;;;0.60;0.60;;;;;;;-146.19;100.00;65364.44;10532612;28;20052;-49
2022/05/13 01:06:07;;;;;;;0.50;0.50;;;;;;;-146.19;100.00;65364.44;10525001;28;20048;-49
2022/05/13 01:11:29;;;;;;;0.60;0.60;;;;;;;-146.19;100.00;65364.44;10488639;28;20404;-49
2022/05/13 01:22:26;;;;;;;0.63;0.60;;;;;;;-146.19;100.00;65364.44;10547742;28;20544;-49
2022/05/13 01:27:47;;;;;;;0.60;0.60;;;;;;;-146.19;100.00;65364.44;10535400;28;20298;-49
2022/05/13 01:33:07;;;;;;;0.60;0.60;;;;;;;-146.19;100.00;65364.44;10541964;28;20082;-49
2022/05/13 01:38:29;;;;;;;0.60;0.60;;;;;;;-146.19;100.00;65364.44;10542124;28;20056;-48
2022/05/13 01:43:50;;;;;;;0.60;0.60;;;;;;;-146.19;100.00;65364.44;10541599;28;20059;-49
2022/05/13 01:49:10;;;;;;;0.50;0.50;;;;;;;-146.19;100.00;65364.44;10541341;28;20051;-49
2022/05/13 01:54:29;;;;;;;1.00;0.60;;;;;;;-146.19;100.00;65364.44;10540973;28;20094;-49
2022/05/13 01:59:48;;;;;;;0.70;0.70;;;;;;;-146.19;100.00;65364.44;10540463;28;20063;-51
2022/05/13 02:05:08;;;;;;;0.50;0.50;;;;;;;-146.19;100.00;65364.44;10540636;28;20423;-48
2022/05/13 02:10:29;;;;;;;0.80;0.80;;;;;;;-146.19;100.00;65364.44;10540715;28;20744;-49
2022/05/13 02:15:48;;;;;;;0.60;0.60;;;;;;;-146.19;100.00;65364.44;10540103;28;20059;-48
2022/05/13 02:21:08;;;;;;;0.60;0.60;;;;;;;-146.19;100.00;65364.44;10553567;28;20036;-49
2022/05/13 02:26:27;;;;;;;0.60;0.60;;;;;;;-146.19;100.00;65364.44;10553408;28;20036;-49
2022/05/13 02:31:46;;;;;;;0.60;0.60;;;;;;;-146.19;100.00;65364.44;10539862;28;20117;-49
2022/05/13 02:37:05;;;;;;;0.40;0.40;;;;;;;-146.19;100.00;65364.44;10539532;28;20087;-51
2022/05/13 02:42:25;;;;;;;0.50;0.50;;;;;;;-146.19;100.00;65364.44;10539105;28;20059;-49
2022/05/13 02:47:45;;;;;;;0.60;0.60;;;;;;;-146.19;100.00;65364.44;10538255;28;20060;-48
2022/05/13 02:53:04;;;;;;;0.50;0.50;;;;;;;-146.19;100.00;65364.44;10552425;28;20036;-49
2022/05/13 02:58:24;;;;;;;0.50;0.50;;;;;;;-146.19;100.00;65364.44;10538049;28;20727;-49
2022/05/13 03:03:46;;;;;;;0.60;0.60;;;;;;;-146.19;100.00;65364.44;10552034;28;20047;-49
2022/05/13 03:09:05;;;;;;;0.50;0.50;;;;;;;-146.19;100.00;65364.44;10551534;28;20044;-49
2022/05/13 03:14:25;;;;;;;0.85;0.70;;;;;;;-146.19;100.00;65364.44;10538205;28;20426;-49
2022/05/13 03:19:44;;;;;;;0.50;0.50;;;;;;;-146.19;100.00;65364.44;10537407;28;20059;-49
2022/05/13 03:25:04;;;;;;;0.50;0.50;;;;;;;-146.19;100.00;65364.44;10551135;28;20512;-48
2022/05/13 03:30:25;;;;;;;0.40;0.40;;;;;;;-146.19;100.00;65364.44;10550804;28;20068;-49
2022/05/13 03:35:45;;;;;;;0.52;0.52;;;;;;;-146.19;100.00;65364.44;10550755;28;20048;-49
2022/05/13 03:41:04;;;;;;;0.60;0.60;;;;;;;-146.19;100.00;65364.44;10536345;28;20051;-48
2022/05/13 03:46:24;;;;;;;0.50;0.50;;;;;;;-146.19;100.00;65364.44;10535604;28;20056;-49
2022/05/13 03:51:43;;;;;;;0.55;0.52;;;;;;;-146.19;100.00;65364.44;10535860;28;20071;-49
2022/05/13 03:57:03;;;;;;;0.50;0.50;;;;;;;-146.19;100.00;65364.44;10535687;28;20193;-49
2022/05/13 04:02:23;;;;;;;0.43;0.43;;;;;;;-146.19;100.00;65364.44;10549728;28;20755;-49
2022/05/13 04:18:59;;;;;;;;;;;;;;;-146.19;100.00;65364.44;10549606;28;20118;-49
2022/05/13 04:24:19;;;;;;;0.55;0.55;;;;;;;-146.19;100.00;65364.44;10535335;28;19920;-49
2022/05/13 04:29:38;;;;;;;0.50;0.50;;;;;;;-146.19;100.00;65364.44;10520192;28;20449;-48
2022/05/13 04:34:58;;;;;;;0.40;0.40;;;;;;;-146.19;100.00;65364.44;10548689;28;20568;-49
2022/05/13 04:40:17;;;;;;;0.50;0.50;;;;;;;-146.19;100.00;65364.44;10527128;28;20460;-49
2022/05/13 04:45:36;;;;;;;0.50;0.50;;;;;;;-146.19;100.00;65364.44;10534659;28;20503;-49
2022/05/13 04:50:58;;;;;;;0.50;0.50;;;;;;;-146.19;100.00;65364.44;10534716;28;20436;-49
2022/05/13 04:56:17;;;;;;;0.60;0.60;;;;;;;-146.19;100.00;65364.44;10532692;28;20557;-49
2022/05/13 05:01:37;;;;;;;0.47;0.47;;;;;;;-146.19;100.00;65364.44;10535080;28;20052;-49
2022/05/13 05:06:56;;;;;;;0.50;0.50;;;;;;;-146.19;100.00;65364.44;10542293;28;20052;-49
2022/05/13 05:12:15;;;;;;;0.40;0.40;;;;;;;-146.19;100.00;65364.44;10527685;28;20052;-49
2022/05/13 05:17:35;;;;;;;0.43;0.40;;;;;;;-146.19;100.00;65364.44;10556213;28;20490;-49
2022/05/13 05:22:54;;;;;;;0.40;0.40;;;;;;;-146.19;100.00;65364.44;10542537;28;20054;-48
2022/05/13 05:28:13;;;;;;;0.50;0.50;;;;;;;-146.19;100.00;65364.44;10555688;28;20094;-49
2022/05/13 05:33:33;;;;;;;0.50;0.50;;;;;;;-146.19;100.00;65364.44;10555601;28;20479;-48
2022/05/13 05:38:52;;;;;;;0.50;0.50;;;;;;;-146.19;100.00;65364.44;10538568;28;20557;-49
2022/05/13 05:44:12;;;;;;;0.38;0.38;;;;;;;-146.19;100.00;65364.44;10542959;28;20070;-48
2022/05/13 05:49:31;;;;;;;0.35;0.35;;;;;;;-146.19;100.00;65364.44;10541389;28;20483;-49
2022/05/13 06:00:31;;;;;;;0.50;0.50;;;;;;;-146.19;100.00;65364.44;10528072;28;20056;-49
2022/05/13 06:05:57;;;;;;;0.50;0.50;;;;;;;-146.19;100.00;65364.44;10554228;28;20043;-50
2022/05/13 06:11:17;;;;;;;0.50;0.50;;;;;;;-146.19;100.00;65364.44;10538835;28;20040;-49
2022/05/13 06:16:37;;;;;;;0.50;0.50;;;;;;;-146.19;100.00;65364.44;10553205;28;20059;-50
2022/05/13 06:21:56;;;;;;;0.52;0.45;;;;;;;-146.19;100.00;65364.44;10539596;28;20059;-49
2022/05/13 06:27:15;;;;;;;0.40;0.40;;;;;;;-146.19;100.00;65364.44;10553564;28;20040;-48
2022/05/13 06:32:35;;;;;;;0.52;0.52;;;;;;;-146.19;100.00;65364.44;10524965;28;20127;-49
2022/05/13 06:37:55;;;;;;;0.40;0.40;;;;;;;-146.19;100.00;65364.44;10511270;28;20044;-49
2022/05/13 06:43:15;;;;;;;0.40;0.40;;;;;;;-146.19;100.00;65364.44;10497556;28;20057;-50
2022/05/13 06:48:37;;;;;;;0.50;0.50;;;;;;;-146.19;100.00;65364.44;10532769;28;20063;-49
2022/05/13 06:53:57;;;;;;;0.50;0.50;;;;;;;-146.19;100.00;65364.44;10534060;28;20067;-49
2022/05/13 06:59:16;;;;;;;0.50;0.50;;;;;;;-146.19;100.00;65364.44;10538076;28;20411;-49
2022/05/13 07:04:35;;;;;;;0.55;0.40;;;;;;;-146.19;100.00;65364.44;10538625;28;20125;-49
2022/05/13 07:09:55;;;;;;;0.47;0.47;;;;;;;-146.19;100.00;65364.44;10496609;28;20421;-49
2022/05/13 07:15:16;;;;;;;0.40;0.40;;;;;;;-146.19;100.00;65364.44;10509756;28;20048;-49
2022/05/13 07:20:36;;;;;;;0.50;0.50;;;;;;;-146.19;100.00;65364.44;10509341;28;20040;-49
2022/05/13 07:25:57;;;;;;;0.50;0.50;;;;;;;-146.19;100.00;65364.44;10536689;28;20055;-49
2022/05/13 07:31:16;;;;;;;0.88;0.50;;;;;;;-146.19;100.00;65364.44;10537288;28;20498;-49
2022/05/13 07:36:36;;;;;;;0.30;0.30;;;;;;;-146.19;100.00;65364.44;10537374;28;20098;-48
2022/05/13 07:41:55;;;;;;;0.55;0.55;;;;;;;-146.19;100.00;65364.44;10536934;28;20048;-49
2022/05/13 07:47:18;;;;;;;0.50;0.50;;;;;;;-146.19;100.00;65364.44;10536387;28;20109;-49
2022/05/13 07:52:40;;;;;;;0.40;0.40;;;;;;;-146.19;100.00;65364.44;10536540;28;20529;-49
2022/05/13 07:57:59;;;;;;;0.50;0.50;;;;;;;-146.19;100.00;65364.44;10535586;28;20047;-49
2022/05/13 08:03:18;;;;;;;0.43;0.43;;;;;;;-146.19;100.00;65364.44;10517254;28;20057;-49
2022/05/13 08:08:42;;;;;;;0.50;0.50;;;;;;;-146.19;100.00;65364.44;10505813;28;20047;-49
2022/05/13 08:14:01;;;;;;;0.40;0.40;;;;;;;-146.19;100.00;65364.44;10493551;28;20048;-48
2022/05/13 08:19:21;;;;;;;0.68;0.60;;;;;;;-146.19;100.00;65364.44;10493979;28;20048;-49
2022/05/13 08:24:41;;;;;;;0.45;0.45;;;;;;;-146.19;100.00;65364.44;10538399;28;20035;-49
2022/05/13 08:30:03;;;;;;;0.77;0.50;;;;;;;-146.19;100.00;65364.44;10534823;28;20078;-49
2022/05/13 08:35:23;;;;;;;0.65;0.50;;;;;;;-146.19;100.00;65364.44;10535107;28;20052;-49
2022/05/13 08:40:45;;;;;;;0.50;0.50;;;;;;;-146.19;100.00;65364.44;10534891;28;20056;-49
2022/05/13 08:46:23;;;;;;;0.50;0.50;;;;;;;-146.19;100.00;65364.44;10541151;28;20093;-49
2022/05/13 08:51:57;;;;;;;0.47;0.40;;;;;;;-146.19;100.00;65364.44;10534913;28;20127;-49
2022/05/13 08:57:16;;;;;;;0.50;0.50;;;;;;;-146.19;100.00;65364.44;10532721;28;20048;-49
2022/05/13 09:02:38;;;;;;;1.23;0.50;;;;;;;-146.19;100.00;65364.44;10548033;28;20047;-49
2022/05/13 09:08:00;;;;;;;0.95;0.60;;;;;;;-146.19;100.00;65364.44;10506769;28;20068;-49
2022/05/13 09:13:58;;;;;;;0.50;0.50;;;;;;;-146.19;100.00;65364.44;10491021;28;20045;-49
2022/05/13 09:19:40;;;;;;;0.87;0.40;;;;;;;-146.19;100.00;65364.44;10492712;28;20049;-50
2022/05/13 09:25:00;;;;;;;0.95;0.40;;;;;;;-146.19;100.00;65364.44;10528029;28;20422;-48
2022/05/13 09:30:22;;;;;;;0.50;0.50;;;;;;;-146.19;100.00;65364.44;10547463;28;20036;-49
2022/05/13 09:35:42;;;;;;;0.65;0.60;;;;;;;-146.19;100.00;65364.44;10533936;28;20048;-49
2022/05/13 09:41:05;;;;;;;0.57;0.50;;;;;;;-146.19;100.00;65364.44;10533780;28;20105;-49
2022/05/13 09:46:33;;;;;;;0.30;0.30;;;;;;;-146.19;100.00;65364.44;10539325;28;20048;-49
2022/05/13 09:51:58;;;;;;;0.50;0.50;;;;;;;-146.19;100.00;65364.44;10553921;28;20040;-49
2022/05/13 09:57:28;;;;;;;0.50;0.50;;;;;;;-146.19;100.00;65364.44;10541064;28;20056;-49
2022/05/13 10:02:49;;;;;;;0.38;0.38;;;;;;;-146.19;100.00;65364.44;10541133;28;20052;-49
2022/05/13 10:08:13;;;;;;;0.40;0.40;;;;;;;-146.19;100.00;65364.44;10540795;28;20048;-49
2022/05/13 10:19:18;;;;;;;1.20;0.50;;;;;;;-146.19;100.00;65364.44;10539696;28;20048;-48
2022/05/13 10:25:00;;;;;;;0.40;0.40;;;;;;;-146.19;100.00;65364.44;10540226;28;20483;-50
2022/05/13 10:30:47;;;;;;;0.50;0.50;;;;;;;-146.19;100.00;65364.44;10525300;28;20059;-49
2022/05/13 10:36:14;;;;;;;0.50;0.50;;;;;;;-146.19;100.00;65364.44;10524132;28;20052;-49
2022/05/13 10:41:37;;;;;;;0.40;0.40;;;;;;;-146.19;100.00;65364.44;10539536;28;20056;-50
2022/05/13 10:46:59;;;;;;;0.95;0.50;;;;;;;-146.19;100.00;65364.44;10523604;28;20064;-49
2022/05/13 10:52:41;;;;;;;0.40;0.40;;;;;;;-146.19;100.00;65364.44;10523793;28;20056;-49
2022/05/13 10:58:13;;;;;;;0.50;0.50;;;;;;;-146.19;100.00;65364.44;10551605;28;20047;-49
2022/05/13 11:03:55;;;;;;;0.55;0.55;;;;;;;-146.19;100.00;65364.44;10551963;28;20040;-49
2022/05/13 11:09:33;;;;;;;0.40;0.40;;;;;;;-146.19;100.00;65364.44;10551676;28;20089;-49
2022/05/13 11:15:20;;;;;;;0.50;0.50;;;;;;;-146.19;100.00;65364.44;10537813;28;20419;-48
2022/05/13 11:20:42;;;;;;;0.35;0.35;;;;;;;-146.19;100.00;65364.44;10537777;28;20052;-49
2022/05/13 11:26:19;;;;;;;0.50;0.50;;;;;;;-146.19;100.00;65364.44;10537887;28;20052;-49
2022/05/13 11:31:57;;;;;;;0.40;0.40;;;;;;;-146.19;100.00;65364.44;10551071;28;20070;-49
2022/05/13 11:37:17;;;;;;;0.50;0.50;;;;;;;-146.19;100.00;65364.44;10537268;28;20048;-49
2022/05/13 11:48:36;;;;;;;0.63;0.43;;;;;;;-146.19;100.00;65364.44;10523961;28;20380;-49
2022/05/13 11:54:01;;;;;;;0.40;0.40;;;;;;;-146.19;100.00;65364.44;10549997;28;20036;-49
2022/05/13 11:59:27;;;;;;;0.50;0.50;;;;;;;-146.19;100.00;65364.44;10535806;28;20052;-49
2022/05/13 12:05:06;;;;;;;0.40;0.40;;;;;;;-146.19;100.00;65364.44;10549817;28;20545;-49
2022/05/13 12:10:45;;;;;;;;;;;;;;;-146.19;100.00;65364.44;10517002;28;20040;-49
2022/05/13 12:16:13;;;;;;;0.85;0.50;;;;;;;-146.19;100.00;65364.44;10536042;28;19920;-49
2022/05/13 12:21:43;;;;;;;0.50;0.50;;;;;;;-146.19;100.00;65364.44;10549515;28;20040;-49
2022/05/13 12:27:07;;;;;;;;;;;;;;;-146.19;100.00;65364.44;10536036;28;20044;-50
2022/05/13 12:32:43;;;;;;;0.40;0.40;;;;;;;-146.19;100.00;65364.44;10534875;28;19927;-49
2022/05/13 12:38:06;;;;;;;0.30;0.30;;;;;;;-146.19;100.00;65364.44;10535591;28;20067;-50
2022/05/13 12:43:45;;;;;;;0.47;0.47;;;;;;;-146.19;100.00;65364.44;10535096;28;20052;-49
2022/05/13 12:49:07;;;;;;;;;;;;;;;-146.19;100.00;65364.44;10535373;28;20090;-49
2022/05/13 12:54:28;;;;;;;0.40;0.40;;;;;;;-146.19;100.00;65364.44;10488622;28;19969;-49
2022/05/13 12:59:51;;;;;;;0.50;0.50;;;;;;;-146.19;100.00;65364.44;10518954;28;20075;-49
2022/05/13 13:05:27;;;;;;;0.40;0.40;;;;;;;-146.19;100.00;65364.44;10534263;28;20055;-50
2022/05/13 13:11:09;;;;;;;0.50;0.50;;;;;;;-146.19;100.00;65364.44;10519366;28;20056;-49
2022/05/13 13:16:58;;;;;;;0.50;0.50;;;;;;;-146.19;100.00;65364.44;10547979;28;20059;-52
2022/05/13 13:22:21;;;;;;;0.40;0.40;;;;;;;-146.19;100.00;65364.44;10533682;28;20047;-50
2022/05/13 13:27:40;;;;;;;0.40;0.40;;;;;;;-146.19;100.00;65364.44;10527071;28;20431;-50
2022/05/13 13:33:00;;;;;;;0.47;0.47;;;;;;;-146.19;100.00;65364.44;10541163;28;20633;-50
2022/05/13 13:38:19;;;;;;;0.30;0.30;;;;;;;-146.19;100.00;65364.44;10542229;28;20063;-50
2022/05/13 13:43:38;;;;;;;0.50;0.50;;;;;;;-146.19;100.00;65364.44;10541741;28;20052;-49
2022/05/13 13:49:00;;;;;;;0.40;0.40;;;;;;;-146.19;100.00;65364.44;10541524;28;20079;-50
2022/05/13 13:54:31;;;;;;;0.50;0.50;;;;;;;-146.19;100.00;65364.44;10541218;28;20052;-49
2022/05/13 14:00:03;;;;;;;0.40;0.40;;;;;;;-146.19;100.00;65364.44;10540619;28;20056;-49
2022/05/13 14:05:35;;;;;;;0.40;0.40;;;;;;;-146.19;100.00;65364.44;10534872;28;20059;-50
2022/05/13 14:11:03;;;;;;;0.35;0.35;;;;;;;20.09;50.38;96833.97;10499017;28;20079;-49
2022/05/13 14:16:26;;;;;;;0.50;0.50;;;;;;;20.05;51.71;96787.06;10498732;28;20052;-49
2022/05/13 14:21:50;;;;;;;0.40;0.40;;;;;;;20.05;51.67;96787.88;10492662;28;20056;-49
2022/05/13 14:27:12;;;;;;;0.40;0.40;;;;;;;20.05;51.55;96795.19;10539566;28;20109;-51
2022/05/13 14:32:38;;;;;;;0.47;0.47;;;;;;;20.06;51.70;96794.06;10553528;28;20097;-50
2022/05/13 14:38:00;;;;;;;0.40;0.40;;;;;;;20.06;51.85;96788.66;10539457;28;20052;-50
2022/05/13 14:43:23;;;;;;;0.50;0.50;;;;;;;20.09;51.79;96798.81;10539011;28;20052;-50
2022/05/13 14:48:45;;;;;;;0.40;0.40;;;;;;;20.09;51.76;96809.63;10497439;28;20400;-50
2022/05/13 14:54:09;;;;;;;0.35;0.35;;;;;;;20.10;51.85;96795.00;10482259;28;20052;-49
2022/05/13 14:59:33;;;;;;;0.40;0.40;;;;;;;20.11;51.86;96801.97;10481253;28;20110;-50
2022/05/13 15:04:56;;;;;;;0.30;0.30;;;;;;;20.13;51.75;96810.56;10481981;28;20057;-49
2022/05/13 15:10:21;;;;;;;0.50;0.50;;;;;;;20.18;51.95;96810.38;10455273;28;20542;-50
2022/05/13 15:15:42;;;;;;;0.40;0.40;;;;;;;20.20;51.81;96805.44;10455275;28;20055;-49
2022/05/13 15:21:03;;;;;;;0.40;0.40;;;;;;;20.23;51.94;96821.03;10471799;28;20046;-50
2022/05/13 15:26:26;;;;;;;0.38;0.38;;;;;;;20.23;51.82;96815.59;10496010;28;20087;-49
2022/05/13 15:31:46;;;;;;;0.40;0.40;;;;;;;20.23;51.92;96826.44;10509447;28;20040;-49
2022/05/13 15:37:06;;;;;;;0.40;0.40;;;;;;;20.26;51.81;96824.97;10495722;28;20048;-50
2022/05/13 15:42:26;;;;;;;0.40;0.40;;;;;;;20.26;51.87;96827.69;10501618;28;20102;-51
2022/05/13 15:47:49;;;;;;;0.50;0.40;;;;;;;20.27;51.84;96838.19;10530180;28;20052;-50
2022/05/13 15:53:09;;;;;;;0.40;0.40;;;;;;;20.28;51.77;96847.88;10508896;28;20044;-50
2022/05/13 15:58:37;;;;;;;0.25;0.25;;;;;;;20.28;51.80;96834.34;10493008;28;20064;-49
2022/05/13 16:03:59;;;;;;;0.45;0.45;;;;;;;20.28;51.82;96838.97;10492994;28;20416;-49
2022/05/13 16:09:18;;;;;;;0.40;0.40;;;;;;;20.28;51.71;96847.06;10457648;28;20060;-50
2022/05/13 16:14:38;;;;;;;0.40;0.40;;;;;;;20.29;51.85;96852.16;10452990;28;20057;-49
2022/05/13 16:19:59;;;;;;;0.40;0.40;;;;;;;20.28;51.79;96855.97;10452685;28;20053;-49
2022/05/13 16:25:19;;;;;;;0.47;0.47;;;;;;;20.28;51.88;96845.16;10476201;28;20064;-49
2022/05/13 16:30:40;;;;;;;0.30;0.30;;;;;;;20.29;51.90;96864.91;10493695;28;20094;-51
2022/05/13 16:36:01;;;;;;;0.30;0.30;;;;;;;20.29;51.88;96862.19;10493654;28;20056;-49
2022/05/13 16:41:20;;;;;;;0.30;0.30;;;;;;;20.28;51.85;96868.72;10478303;28;20053;-50
2022/05/13 16:46:40;;;;;;;0.40;0.40;;;;;;;20.27;51.48;96878.75;10465734;28;20041;-50
2022/05/13 16:51:59;;;;;;;0.52;0.47;;;;;;;20.27;50.95;96895.00;10479594;28;20058;-49
2022/05/13 16:57:18;;;;;;;0.73;0.50;;;;;;;-146.19;100.00;65364.44;10510493;28;20044;-49
2022/05/13 17:02:38;;;;;;;1.27;0.50;;;;;;;-146.19;100.00;65364.44;10479413;28;20048;-49
2022/05/13 17:07:57;;;;;;;0.65;0.40;;;;;;;-146.19;100.00;65364.44;10472454;28;20049;-49
2022/05/13 17:24:39;;;;;;;0.82;0.70;;;;;;;-146.19;100.00;65364.44;10489622;28;20063;-50
2022/05/13 17:29:58;;;;;;;1.80;0.77;;;;;;;-146.19;100.00;65364.44;10481360;28;20040;-50
2022/05/13 17:35:19;;;;;;;2.25;1.10;;;;;;;-146.19;100.00;65364.44;10465590;28;20060;-50
2022/05/13 17:40:42;;;;;;;3.35;0.93;;;;;;;-146.19;100.00;65364.44;10486743;28;20048;-49
2022/05/13 17:46:03;;;;;;;1.52;1.00;;;;;;;-146.19;100.00;65364.44;10482695;28;20525;-50
2022/05/13 17:51:23;;;;;;;1.48;0.90;;;;;;;-146.19;100.00;65364.44;10513002;28;20057;-51
2022/05/13 17:56:42;;;;;;;2.03;1.00;;;;;;;-146.19;100.00;65364.44;10518026;28;20056;-50
2022/05/13 18:02:01;;;;;;;2.50;1.02;;;;;;;-146.19;100.00;65364.44;10499856;28;20060;-50
2022/05/13 18:07:23;;;;;;;1.50;0.90;;;;;;;-146.19;100.00;65364.44;10527218;28;20044;-50
2022/05/13 18:12:44;;;;;;;1.88;1.10;;;;;;;-146.19;100.00;65364.44;10525612;28;20487;-50
2022/05/13 18:23:43;;;;;;;3.47;1.17;;;;;;;-146.19;100.00;65364.44;10528184;28;20052;-50
2022/05/13 18:29:03;;;;;;;1.50;0.95;;;;;;;-146.19;100.00;65364.44;10536003;28;20052;-49
2022/05/13 18:34:22;;;;;;;1.80;1.20;;;;;;;-146.19;100.00;65364.44;10522398;28;20055;-53
2022/05/13 18:50:58;;;;;;;1.33;1.00;;;;;;;-146.19;100.00;65364.44;10536884;28;20047;-50
2022/05/13 18:56:21;;;;;;;2.13;1.10;;;;;;;-146.19;100.00;65364.44;10558905;28;20048;-53
2022/05/13 19:01:41;;;;;;;1.98;1.10;;;;;;;-146.19;100.00;65364.44;10551368;28;20231;-50
2022/05/13 19:07:01;;;;;;;1.85;1.10;;;;;;;-146.19;100.00;65364.44;10537370;28;20056;-50
2022/05/13 19:12:21;;;;;;;1.00;0.82;;;;;;;-146.19;100.00;65364.44;10538264;28;20117;-50
2022/05/13 19:17:43;;;;;;;1.70;1.15;;;;;;;-146.19;100.00;65364.44;10524807;28;20121;-53
2022/05/13 19:23:03;;;;;;;2.03;1.00;;;;;;;-146.19;100.00;65364.44;10533986;28;20071;-50
2022/05/13 19:28:23;;;;;;;3.65;1.30;;;;;;;-146.19;100.00;65364.44;10551119;28;20062;-50
2022/05/13 19:33:43;;;;;;;1.90;1.10;;;;;;;-146.19;100.00;65364.44;10537738;28;20055;-53
2022/05/13 19:39:04;;;;;;;4.65;1.40;;;;;;;-146.19;100.00;65364.44;10536203;28;20052;-53
2022/05/13 19:44:24;;;;;;;0.98;0.88;;;;;;;-146.19;100.00;65364.44;10536789;28;20063;-53
2022/05/13 19:49:44;;;;;;;2.28;1.15;;;;;;;-146.19;100.00;65364.44;10579582;28;20047;-51
2022/05/13 19:55:04;;;;;;;3.47;1.15;;;;;;;-146.19;100.00;65364.44;10535258;28;20043;-53
2022/05/13 20:00:27;;;;;;;2.95;1.23;;;;;;;-146.19;100.00;65364.44;10549056;28;20048;-52
2022/05/13 20:11:26;;;;;;;3.33;1.07;;;;;;;-146.19;100.00;65364.44;10535267;28;20055;-51
2022/05/13 20:16:45;;;;;;;2.85;1.35;;;;;;;-146.19;100.00;65364.44;10536044;28;20101;-53
2022/05/13 20:27:44;;;;;;;3.13;1.20;;;;;;;-146.19;100.00;65364.44;10526235;28;20040;-51
2022/05/13 20:33:04;;;;;;;2.20;1.08;;;;;;;-146.19;100.00;65364.44;10496244;28;20491;-50
2022/05/13 20:38:23;;;;;;;2.25;1.08;;;;;;;-146.19;100.00;65364.44;10496656;28;20040;-50
2022/05/13 20:43:43;;;;;;;1.90;1.00;;;;;;;-146.19;100.00;65364.44;10504770;28;20044;-50
2022/05/13 20:49:03;;;;;;;2.10;1.00;;;;;;;-146.19;100.00;65364.44;10494580;28;20052;-50
2022/05/13 20:54:22;;;;;;;1.73;1.25;;;;;;;-146.19;100.00;65364.44;10515135;28;20052;-49
2022/05/13 20:59:42;;;;;;;2.58;1.20;;;;;;;-146.19;100.00;65364.44;10537676;28;20044;-52
2022/05/13 21:05:02;;;;;;;3.10;1.30;;;;;;;-146.19;100.00;65364.44;10501452;28;20040;-49
2022/05/13 21:10:25;;;;;;;2.83;1.38;;;;;;;-146.19;100.00;65364.44;10531939;28;20048;-51
2022/05/13 21:15:44;;;;;;;3.53;1.20;;;;;;;-146.19;100.00;65364.44;10525316;28;20052;-49
2022/05/13 21:21:04;;;;;;;2.42;1.10;;;;;;;-146.19;100.00;65364.44;10502656;28;20205;-49
2022/05/13 21:26:23;;;;;;;2.97;1.13;;;;;;;-146.19;100.00;65364.44;10496459;28;20044;-50
2022/05/13 21:37:21;;;;;;;2.73;1.10;;;;;;;-146.19;100.00;65364.44;10504914;28;20048;-51
2022/05/13 21:42:41;;;;;;;2.08;1.10;;;;;;;-146.19;100.00;65364.44;10490480;28;20052;-50
2022/05/13 21:48:01;;;;;;;2.20;1.00;;;;;;;-146.19;100.00;65364.44;10495952;28;20091;-50
2022/05/13 21:53:22;;;;;;;2.40;1.20;;;;;;;-146.19;100.00;65364.44;10518937;28;20039;-50
2022/05/13 21:58:42;;;;;;;2.30;1.17;;;;;;;-146.19;100.00;65364.44;10510516;28;20044;-50
2022/05/13 22:04:01;;;;;;;2.70;1.10;;;;;;;-146.19;100.00;65364.44;10501216;28;20056;-49
2022/05/13 22:09:21;;;;;;;1.40;0.93;;;;;;;-146.19;100.00;65364.44;10497681;28;20059;-49
2022/05/13 22:14:41;;;;;;;2.92;1.13;;;;;;;-146.19;100.00;65364.44;10519757;28;20048;-50
2022/05/13 22:20:01;;;;;;;2.30;1.10;;;;;;;-146.19;100.00;65364.44;10501432;28;20051;-51
2022/05/13 22:25:20;;;;;;;3.17;1.23;;;;;;;-146.19;100.00;65364.44;10532431;28;20150;-50
2022/05/13 22:30:40;;;;;;;2.80;1.05;;;;;;;-146.19;100.00;65364.44;10489776;28;20178;-50
2022/05/13 22:35:59;;;;;;;2.17;1.10;;;;;;;-146.19;100.00;65364.44;10500199;28;20487;-50
2022/05/13 22:41:19;;;;;;;2.47;1.00;;;;;;;-146.19;100.00;65364.44;10494296;28;20056;-49
2022/05/13 22:46:38;;;;;;;1.33;1.00;;;;;;;-146.19;100.00;65364.44;10493006;28;20091;-49
2022/05/13 22:51:58;;;;;;;1.52;1.00;;;;;;;-146.19;100.00;65364.44;10494083;28;20102;-50
2022/05/13 22:57:17;;;;;;;2.05;1.00;;;;;;;-146.19;100.00;65364.44;10521807;28;20056;-52
2022/05/13 23:02:36;;;;;;;2.30;1.10;;;;;;;-146.19;100.00;65364.44;10534565;28;20514;-50
2022/05/13 23:13:34;;;;;;;2.10;1.08;;;;;;;-146.19;100.00;65364.44;10539632;28;20048;-50
2022/05/13 23:18:53;;;;;;;1.55;1.00;;;;;;;-146.19;100.00;65364.44;10547169;28;20050;-51
2022/05/13 23:24:14;;;;;;;1.00;0.90;;;;;;;-146.19;100.00;65364.44;10519175;28;20055;-51
2022/05/13 23:29:33;;;;;;;3.40;1.13;;;;;;;-146.19;100.00;65364.44;10531080;28;20055;-50
2022/05/13 23:34:53;;;;;;;2.60;0.93;;;;;;;-146.19;100.00;65364.44;10523761;28;20056;-51
2022/05/13 23:40:14;;;;;;;1.70;1.00;;;;;;;-146.19;100.00;65364.44;10534733;28;20059;-49
2022/05/13 23:45:33;;;;;;;1.33;0.85;;;;;;;-146.19;100.00;65364.44;10529044;28;20593;-50
2022/05/13 23:50:54;;;;;;;3.38;1.10;;;;;;;-146.19;100.00;65364.44;10512886;28;20106;-50
2022/05/13 23:56:18;;;;;;;2.15;1.40;;;;;;;-146.19;100.00;65364.44;10511960;28;20502;-50
